createdAt,value
2023-04-04T00:00:00.996Z,10.73
2023-04-04T00:05:03.836Z,11.43
2023-04-04T00:10:06.492Z,16.25
2023-04-04T00:15:09.088Z,13.93
2023-04-04T00:20:11.586Z,12.30
2023-04-04T00:25:13.687Z,13.90
2023-04-04T00:30:15.921Z,9.40
2023-04-04T00:35:18.020Z,6.80
2023-04-04T00:40:20.090Z,10.07
2023-04-04T00:45:22.669Z,9.27
2023-04-04T00:50:25.020Z,6.40
2023-04-04T00:55:27.429Z,9.98
2023-04-04T01:00:29.852Z,7.60
2023-04-04T01:05:32.594Z,8.88
2023-04-04T01:10:35.640Z,8.52
2023-04-04T01:15:38.032Z,7.10
2023-04-04T01:21:02.608Z,7.03
2023-04-04T01:26:05.909Z,7.18
2023-04-04T01:31:14.130Z,6.63
2023-04-04T01:36:31.919Z,9.25
2023-04-04T01:41:37.745Z,6.88
2023-04-04T01:46:40.273Z,7.53
2023-04-04T01:51:44.922Z,7.13
2023-04-04T01:56:47.241Z,8.95
2023-04-04T02:01:50.002Z,8.15
2023-04-04T02:06:52.759Z,7.90
2023-04-04T02:11:55.080Z,8.07
2023-04-04T02:16:57.316Z,7.68
2023-04-04T02:21:59.567Z,4.63
2023-04-04T02:27:01.710Z,5.72
2023-04-04T02:32:03.837Z,6.10
2023-04-04T02:37:06.712Z,6.80
2023-04-04T02:42:08.823Z,8.10
2023-04-04T02:47:11.118Z,9.07
2023-04-04T02:52:13.404Z,8.00
2023-04-04T02:57:19.360Z,8.32
2023-04-04T03:02:23.888Z,6.65
2023-04-04T03:07:26.716Z,7.30
2023-04-04T03:12:29.366Z,7.82
2023-04-04T03:17:32.305Z,6.88
2023-04-04T03:22:35.920Z,5.55
2023-04-04T03:27:39.858Z,6.35
2023-04-04T03:32:42.754Z,6.85
2023-04-04T03:37:44.975Z,8.32
2023-04-04T03:42:47.309Z,9.63
2023-04-04T03:47:54.505Z,9.55
2023-04-04T03:52:58.478Z,6.97
2023-04-04T03:58:00.755Z,8.85
2023-04-04T04:03:03.136Z,8.77
2023-04-04T04:08:06.129Z,7.47
2023-04-04T04:13:08.600Z,6.88
2023-04-04T04:18:11.095Z,7.22
2023-04-04T04:23:13.389Z,7.95
2023-04-04T04:28:16.014Z,8.88
2023-04-04T04:33:19.366Z,7.82
2023-04-04T04:38:32.239Z,7.78
2023-04-04T04:43:36.915Z,11.20
2023-04-04T04:48:39.426Z,10.45
2023-04-04T04:53:42.750Z,10.20
2023-04-04T04:58:47.653Z,10.82
2023-04-04T05:03:56.781Z,10.45
2023-04-04T05:09:07.160Z,10.23
2023-04-04T05:19:22.947Z,10.52
2023-04-04T05:24:30.165Z,12.50
2023-04-04T05:29:34.051Z,9.13
2023-04-04T05:34:38.099Z,9.23
2023-04-04T05:39:43.998Z,9.55
2023-04-04T05:44:46.379Z,9.70
2023-04-04T05:49:48.839Z,11.98
2023-04-04T05:54:51.353Z,11.90
2023-04-04T06:00:01.480Z,9.13
2023-04-04T06:05:06.524Z,11.27
2023-04-04T06:10:11.657Z,10.23
2023-04-04T06:15:13.901Z,9.07
2023-04-04T06:20:19.267Z,10.57
2023-04-04T06:25:22.372Z,9.57
2023-04-04T06:30:24.739Z,9.50
2023-04-04T06:35:28.118Z,9.77
2023-04-04T06:40:35.409Z,9.73
2023-04-04T06:45:38.268Z,12.73
2023-04-04T06:50:41.032Z,9.85
2023-04-04T06:55:48.149Z,10.25
2023-04-04T07:00:50.384Z,12.32
2023-04-04T07:05:52.894Z,10.00
2023-04-04T07:10:55.136Z,10.07
2023-04-04T07:15:57.262Z,8.57
2023-04-04T07:20:59.622Z,8.48
2023-04-04T07:26:01.763Z,8.82
2023-04-04T07:31:03.827Z,7.20
2023-04-04T07:36:05.990Z,6.47
2023-04-04T07:41:08.710Z,8.27
2023-04-04T07:46:11.855Z,7.30
2023-04-04T07:51:14.231Z,8.30
2023-04-04T07:56:16.292Z,7.97
2023-04-04T08:01:18.486Z,7.50
2023-04-04T08:06:20.808Z,7.47
2023-04-04T08:11:23.184Z,10.55
2023-04-04T08:16:25.478Z,8.00
2023-04-04T08:21:27.726Z,5.78
2023-04-04T08:26:30.663Z,6.40
2023-04-04T08:31:33.162Z,8.75
2023-04-04T08:36:36.131Z,7.28
2023-04-04T08:41:39.836Z,7.53
2023-04-04T08:46:42.272Z,8.73
2023-04-04T08:51:45.921Z,8.73
2023-04-04T08:56:49.802Z,8.07
2023-04-04T09:02:05.696Z,9.18
2023-04-04T09:07:09.319Z,5.10
2023-04-04T09:12:13.464Z,6.35
2023-04-04T09:17:16.753Z,5.03
2023-04-04T09:22:19.484Z,6.20
2023-04-04T09:27:21.803Z,4.18
2023-04-04T09:32:26.402Z,6.25
2023-04-04T09:37:28.981Z,5.65
2023-04-04T09:42:31.947Z,7.53
2023-04-04T09:47:34.122Z,6.07
2023-04-04T09:52:36.226Z,5.57
2023-04-04T09:57:39.459Z,6.03
2023-04-04T10:02:47.824Z,7.18
2023-04-04T10:07:50.149Z,10.75
2023-04-04T10:12:53.032Z,8.27
2023-04-04T10:17:55.590Z,8.20
2023-04-04T10:22:58.728Z,7.30
2023-04-04T10:28:01.787Z,8.18
2023-04-04T10:33:12.735Z,6.30
2023-04-04T10:38:16.558Z,8.05
2023-04-04T10:43:24.858Z,8.73
2023-04-04T10:48:28.189Z,4.43
2023-04-04T10:53:30.864Z,8.68
2023-04-04T10:58:39.044Z,8.45
2023-04-04T11:04:20.097Z,8.32
2023-04-04T11:10:01.237Z,9.63
2023-04-04T11:15:09.886Z,10.02
2023-04-04T11:20:16.823Z,9.90
2023-04-04T11:25:26.126Z,6.55
2023-04-04T11:30:28.348Z,8.25
2023-04-04T11:35:30.464Z,7.90
2023-04-04T11:40:41.797Z,7.03
2023-04-04T11:45:45.108Z,6.15
2023-04-04T11:50:50.115Z,7.60
2023-04-04T11:55:53.616Z,6.03
2023-04-04T12:00:55.855Z,6.78
2023-04-04T12:05:58.049Z,10.30
2023-04-04T12:11:05.175Z,6.38
2023-04-04T12:16:09.141Z,6.68
2023-04-04T12:21:11.455Z,7.20
2023-04-04T12:26:14.073Z,6.50
2023-04-04T12:31:16.927Z,6.18
2023-04-04T12:36:19.537Z,6.45
2023-04-04T12:41:21.717Z,9.38
2023-04-04T12:46:28.016Z,7.97
2023-04-04T12:51:34.007Z,5.80
2023-04-04T12:56:37.242Z,9.90
2023-04-04T13:01:39.397Z,10.98
2023-04-04T13:06:44.368Z,6.30
2023-04-04T13:12:08.411Z,9.40
2023-04-04T13:17:10.984Z,11.20
2023-04-04T13:22:13.114Z,7.63
2023-04-04T13:27:15.277Z,10.32
2023-04-04T13:32:17.487Z,11.95
2023-04-04T13:37:20.565Z,7.60
2023-04-04T13:42:26.936Z,9.50
2023-04-04T13:47:29.072Z,9.63
2023-04-04T13:52:31.202Z,9.00
2023-04-04T13:57:33.430Z,9.85
2023-04-04T14:02:35.654Z,6.80
2023-04-04T14:07:38.477Z,8.18
2023-04-04T14:12:40.803Z,6.28
2023-04-04T14:17:43.542Z,7.13
2023-04-04T14:22:46.223Z,9.20
2023-04-04T14:27:48.460Z,10.70
2023-04-04T14:32:51.279Z,8.88
2023-04-04T14:37:54.571Z,6.88
2023-04-04T14:42:57.404Z,7.65
2023-04-04T14:47:59.565Z,6.85
2023-04-04T14:53:01.655Z,10.02
2023-04-04T14:58:03.736Z,8.40
2023-04-04T15:03:07.295Z,10.13
2023-04-04T15:08:09.531Z,7.18
2023-04-04T15:13:11.711Z,8.95
2023-04-04T15:18:13.829Z,8.68
2023-04-04T15:23:15.901Z,8.73
2023-04-04T15:28:18.022Z,9.02
2023-04-04T15:33:20.136Z,11.35
2023-04-04T15:38:22.550Z,9.10
2023-04-04T15:43:24.851Z,8.40
2023-04-04T15:48:26.910Z,9.68
2023-04-04T15:53:33.364Z,8.23
2023-04-04T15:58:35.505Z,8.35
2023-04-04T16:03:37.822Z,8.45
2023-04-04T16:08:42.385Z,10.40
2023-04-04T16:13:44.952Z,8.43
2023-04-04T16:18:47.696Z,8.50
2023-04-04T16:23:49.772Z,9.68
2023-04-04T16:28:51.824Z,7.53
2023-04-04T16:33:53.899Z,7.15
2023-04-04T16:38:57.875Z,12.35
2023-04-04T16:44:00.452Z,9.93
2023-04-04T16:49:02.552Z,9.90
2023-04-04T16:54:04.702Z,10.68
2023-04-04T16:59:07.055Z,8.70
2023-04-04T17:04:09.233Z,9.85
2023-04-04T17:09:11.377Z,12.63
2023-04-04T17:14:14.251Z,8.85
2023-04-04T17:19:16.518Z,10.40
2023-04-04T17:24:19.488Z,12.30
2023-04-04T17:29:26.696Z,9.25
2023-04-04T17:34:29.530Z,9.38
2023-04-04T17:39:31.996Z,8.95
2023-04-04T17:44:34.235Z,8.32
2023-04-04T17:49:37.455Z,9.10
2023-04-04T17:54:40.009Z,10.35
2023-04-04T17:59:42.082Z,12.40
2023-04-04T18:04:44.282Z,9.80
2023-04-04T18:09:46.782Z,10.02
2023-04-04T18:14:49.028Z,9.82
2023-04-04T18:19:51.418Z,7.30
2023-04-04T18:24:53.552Z,9.07
2023-04-04T18:29:55.767Z,9.07
2023-04-04T18:34:57.860Z,9.38
2023-04-04T18:39:59.959Z,9.68
2023-04-04T18:45:02.836Z,7.97
2023-04-04T18:50:06.624Z,10.18
2023-04-04T18:55:09.404Z,8.40
2023-04-04T19:00:12.390Z,8.90
2023-04-04T19:05:20.705Z,9.13
2023-04-04T19:10:22.857Z,7.95
2023-04-04T19:15:25.063Z,8.82
2023-04-04T19:20:27.348Z,11.27
2023-04-04T19:25:29.490Z,8.18
2023-04-04T19:30:45.165Z,7.45
2023-04-04T19:35:53.714Z,7.75
2023-04-04T19:41:01.793Z,9.05
2023-04-04T19:46:09.609Z,9.93
2023-04-04T19:51:39.024Z,6.68
2023-04-04T19:56:44.011Z,10.68
2023-04-04T20:01:59.673Z,8.57
2023-04-04T20:07:02.472Z,5.97
2023-04-04T20:12:07.206Z,4.57
2023-04-04T20:17:09.785Z,4.68
2023-04-04T20:22:12.078Z,5.47
2023-04-04T20:27:23.739Z,6.25
2023-04-04T20:32:26.016Z,8.25
2023-04-04T20:37:29.060Z,8.65
2023-04-04T20:42:31.469Z,6.57
2023-04-04T20:47:47.360Z,5.45
2023-04-04T20:52:52.965Z,7.65
2023-04-04T20:57:59.581Z,7.05
2023-04-04T21:03:08.552Z,8.95
2023-04-04T21:08:37.614Z,31.27
2023-04-04T21:13:41.671Z,37.67
2023-04-04T21:18:44.617Z,24.98
2023-04-04T21:23:59.761Z,18.48
2023-04-04T21:29:04.626Z,12.77
2023-04-04T21:34:18.204Z,7.30
2023-04-04T21:39:31.689Z,8.25
2023-04-04T21:44:33.853Z,9.15
2023-04-04T21:49:35.966Z,7.03
2023-04-04T21:54:38.027Z,5.72
2023-04-04T21:59:40.060Z,7.95
2023-04-04T22:04:42.236Z,6.78
2023-04-04T22:09:44.372Z,5.55
2023-04-04T22:14:50.606Z,7.03
2023-04-04T22:19:58.897Z,7.85
2023-04-04T22:25:05.832Z,7.28
2023-04-04T22:30:08.463Z,7.50
2023-04-04T22:35:12.362Z,8.00
2023-04-04T22:40:14.393Z,7.65
2023-04-04T22:45:16.912Z,8.73
2023-04-04T22:50:24.928Z,15.05
2023-04-04T22:55:28.030Z,21.13
2023-04-04T23:00:30.161Z,26.83
2023-04-04T23:05:32.528Z,16.45
2023-04-04T23:10:34.777Z,27.95
2023-04-04T23:15:37.915Z,15.73
2023-04-04T23:20:41.182Z,24.20
2023-04-04T23:25:43.427Z,18.38
2023-04-04T23:30:45.606Z,29.90
2023-04-04T23:35:48.036Z,10.55
2023-04-04T23:40:50.132Z,10.13
2023-04-04T23:45:52.991Z,11.57
2023-04-04T23:50:56.581Z,9.30
2023-04-04T23:55:58.629Z,7.45
